createdAt,value
2018-05-16T00:00:06.685Z,99.99
2018-05-16T00:01:06.620Z,99.99
2018-05-16T00:02:06.558Z,99.99
2018-05-16T00:03:06.500Z,99.99
2018-05-16T00:04:06.428Z,99.99
2018-05-16T00:05:06.369Z,99.99
2018-05-16T00:06:06.308Z,99.95
2018-05-16T00:07:06.238Z,99.99
2018-05-16T00:08:06.178Z,99.95
2018-05-16T00:09:06.116Z,99.99
2018-05-16T00:10:06.060Z,99.99
2018-05-16T00:11:05.984Z,99.95
2018-05-16T00:12:05.922Z,99.99
2018-05-16T00:13:05.862Z,99.95
2018-05-16T00:14:05.793Z,99.95
2018-05-16T00:15:05.731Z,99.99
2018-05-16T00:16:05.667Z,99.99
2018-05-16T00:17:05.606Z,99.95
2018-05-16T00:18:05.544Z,99.85
2018-05-16T00:19:05.479Z,99.85
2018-05-16T00:20:05.418Z,99.37
2018-05-16T00:21:05.361Z,99.75
2018-05-16T00:22:05.287Z,99.99
2018-05-16T00:23:05.224Z,99.95
2018-05-16T00:24:05.161Z,99.99
2018-05-16T00:25:05.096Z,99.99
2018-05-16T00:26:05.034Z,99.95
2018-05-16T00:27:04.969Z,99.99
2018-05-16T00:28:04.907Z,99.95
2018-05-16T00:29:04.844Z,99.99
2018-05-16T00:30:04.780Z,99.99
2018-05-16T00:31:04.720Z,99.99
2018-05-16T00:32:04.652Z,99.99
2018-05-16T00:33:04.591Z,99.99
2018-05-16T00:34:04.527Z,99.99
2018-05-16T00:35:04.462Z,99.99
2018-05-16T00:36:04.397Z,99.99
2018-05-16T00:37:04.334Z,99.99
2018-05-16T00:38:04.272Z,99.95
2018-05-16T00:39:04.208Z,99.37
2018-05-16T00:40:04.146Z,99.75
2018-05-16T00:41:04.082Z,99.56
2018-05-16T00:42:04.017Z,99.99
2018-05-16T00:43:03.954Z,99.95
2018-05-16T00:44:03.891Z,99.99
2018-05-16T00:45:03.828Z,99.99
2018-05-16T00:46:03.765Z,99.99
2018-05-16T00:47:03.701Z,99.99
2018-05-16T00:48:03.641Z,99.99
2018-05-16T00:49:03.621Z,99.99
2018-05-16T00:50:03.509Z,99.95
2018-05-16T00:51:03.450Z,99.95
2018-05-16T00:52:03.383Z,99.85
2018-05-16T00:53:03.321Z,99.37
2018-05-16T00:54:03.259Z,99.99
2018-05-16T00:55:03.192Z,99.99
2018-05-16T00:56:03.131Z,99.85
2018-05-16T00:57:03.068Z,99.99
2018-05-16T00:58:03.001Z,99.95
2018-05-16T00:59:02.995Z,99.99
2018-05-16T01:00:02.876Z,99.99
2018-05-16T01:01:02.816Z,99.99
2018-05-16T01:02:02.748Z,99.95
2018-05-16T01:03:02.686Z,99.99
2018-05-16T01:04:02.624Z,99.99
2018-05-16T01:05:02.570Z,99.99
2018-05-16T01:06:02.498Z,99.99
2018-05-16T01:07:02.432Z,99.99
2018-05-16T01:08:02.370Z,99.99
2018-05-16T01:09:02.309Z,99.99
2018-05-16T01:10:02.242Z,99.99
2018-05-16T01:11:02.180Z,99.99
2018-05-16T01:12:02.119Z,99.99
2018-05-16T01:13:02.052Z,99.99
2018-05-16T01:14:01.987Z,99.99
2018-05-16T01:15:01.926Z,99.99
2018-05-16T01:16:01.865Z,99.99
2018-05-16T01:17:01.798Z,99.99
2018-05-16T01:18:01.744Z,99.99
2018-05-16T01:19:01.669Z,99.99
2018-05-16T01:20:01.606Z,99.66
2018-05-16T01:21:01.609Z,99.99
2018-05-16T01:22:01.483Z,99.95
2018-05-16T01:23:01.419Z,99.85
2018-05-16T01:24:01.354Z,99.99
2018-05-16T01:25:01.289Z,99.99
2018-05-16T01:26:01.224Z,99.99
2018-05-16T01:27:01.161Z,99.37
2018-05-16T01:28:01.101Z,99.99
2018-05-16T01:29:01.036Z,99.99
2018-05-16T01:30:00.969Z,99.99
2018-05-16T01:31:00.909Z,99.95
2018-05-16T01:32:00.847Z,99.85
2018-05-16T01:33:00.781Z,99.99
2018-05-16T01:34:00.717Z,99.99
2018-05-16T01:35:00.653Z,99.95
2018-05-16T01:36:00.591Z,99.99
2018-05-16T01:37:00.529Z,99.99
2018-05-16T01:38:00.463Z,99.99
2018-05-16T01:39:00.400Z,99.99
2018-05-16T01:40:00.351Z,99.99
2018-05-16T01:41:00.274Z,99.99
2018-05-16T01:42:00.205Z,99.99
2018-05-16T01:43:00.148Z,99.99
2018-05-16T01:44:00.084Z,99.99
2018-05-16T01:45:00.022Z,99.99
2018-05-16T01:45:59.956Z,99.99
2018-05-16T01:46:59.892Z,99.99
2018-05-16T01:47:59.830Z,99.85
2018-05-16T01:48:59.766Z,99.56
2018-05-16T01:49:59.705Z,99.99
2018-05-16T01:50:59.639Z,99.85
2018-05-16T01:51:59.578Z,99.95
2018-05-16T01:52:59.511Z,99.99
2018-05-16T01:53:59.450Z,99.37
2018-05-16T01:54:59.385Z,99.99
2018-05-16T01:55:59.324Z,99.08
2018-05-16T01:56:59.259Z,99.37
2018-05-16T01:57:59.195Z,99.99
2018-05-16T01:58:59.131Z,99.46
2018-05-16T01:59:59.070Z,98.80
2018-05-16T02:00:59.007Z,99.99
2018-05-16T02:01:58.940Z,99.99
2018-05-16T02:02:58.887Z,99.56
2018-05-16T02:03:58.815Z,99.95
2018-05-16T02:04:58.752Z,99.99
2018-05-16T02:05:58.688Z,99.99
2018-05-16T02:06:58.626Z,99.99
2018-05-16T02:07:58.561Z,99.99
2018-05-16T02:08:58.500Z,99.85
2018-05-16T02:09:58.437Z,99.95
2018-05-16T02:10:58.375Z,99.56
2018-05-16T02:11:58.307Z,99.85
2018-05-16T02:12:58.246Z,99.99
2018-05-16T02:13:58.182Z,99.95
2018-05-16T02:14:58.119Z,99.66
2018-05-16T02:15:58.055Z,99.99
2018-05-16T02:16:57.994Z,99.61
2018-05-16T02:17:57.929Z,99.61
2018-05-16T02:18:57.866Z,99.99
2018-05-16T02:19:57.802Z,99.56
2018-05-16T02:20:57.738Z,99.08
2018-05-16T02:21:57.675Z,98.90
2018-05-16T02:22:57.612Z,98.70
2018-05-16T02:23:57.549Z,99.66
2018-05-16T02:24:57.486Z,99.75
2018-05-16T02:25:57.423Z,99.99
2018-05-16T02:26:57.359Z,99.99
2018-05-16T02:27:57.296Z,99.99
2018-05-16T02:28:57.233Z,99.99
2018-05-16T02:29:57.168Z,99.46
2018-05-16T02:30:57.104Z,99.99
2018-05-16T02:31:57.044Z,99.99
2018-05-16T02:32:56.979Z,99.99
2018-05-16T02:33:56.917Z,99.95
2018-05-16T02:34:56.851Z,99.85
2018-05-16T02:35:56.790Z,99.99
2018-05-16T02:36:56.727Z,99.99
2018-05-16T02:37:56.662Z,99.99
2018-05-16T02:38:56.604Z,99.99
2018-05-16T02:39:56.536Z,99.99
2018-05-16T02:40:56.477Z,99.99
2018-05-16T02:41:56.406Z,99.99
2018-05-16T02:42:56.344Z,99.99
2018-05-16T02:43:56.285Z,99.99
2018-05-16T02:44:56.220Z,99.99
2018-05-16T02:45:56.155Z,99.75
2018-05-16T02:46:56.093Z,99.99
2018-05-16T02:47:56.031Z,99.99
2018-05-16T02:48:55.966Z,99.56
2018-05-16T02:49:55.904Z,99.99
2018-05-16T02:50:55.839Z,99.99
2018-05-16T02:51:55.777Z,99.99
2018-05-16T02:52:55.715Z,99.42
2018-05-16T02:53:55.649Z,99.56
2018-05-16T02:54:55.589Z,99.61
2018-05-16T02:55:55.531Z,99.52
2018-05-16T02:56:55.462Z,99.66
2018-05-16T02:57:55.397Z,99.95
2018-05-16T02:58:55.337Z,99.99
2018-05-16T02:59:55.271Z,99.95
2018-05-16T03:00:55.207Z,99.99
2018-05-16T03:01:55.143Z,99.99
2018-05-16T03:02:55.084Z,99.27
2018-05-16T03:03:55.015Z,99.75
2018-05-16T03:04:54.954Z,99.56
2018-05-16T03:05:54.894Z,99.99
2018-05-16T03:06:54.825Z,99.46
2018-05-16T03:07:54.765Z,99.66
2018-05-16T03:08:54.705Z,99.56
2018-05-16T03:09:54.636Z,99.85
2018-05-16T03:10:54.576Z,99.85
2018-05-16T03:11:54.511Z,99.99
2018-05-16T03:12:54.449Z,99.99
2018-05-16T03:13:54.382Z,99.99
2018-05-16T03:14:54.325Z,99.99
2018-05-16T03:15:54.257Z,99.99
2018-05-16T03:16:54.193Z,99.99
2018-05-16T03:17:54.134Z,99.99
2018-05-16T03:18:54.067Z,99.99
2018-05-16T03:19:54.002Z,99.99
2018-05-16T03:20:53.942Z,99.99
2018-05-16T03:21:53.874Z,99.99
2018-05-16T03:22:53.814Z,99.99
2018-05-16T03:23:53.755Z,99.99
2018-05-16T03:24:53.688Z,99.99
2018-05-16T03:25:53.623Z,99.99
2018-05-16T03:26:53.560Z,99.99
2018-05-16T03:27:53.499Z,99.99
2018-05-16T03:28:53.445Z,99.99
2018-05-16T03:29:53.371Z,99.99
2018-05-16T03:30:53.312Z,99.99
2018-05-16T03:31:53.245Z,99.99
2018-05-16T03:32:53.183Z,99.99
2018-05-16T03:33:53.118Z,99.99
2018-05-16T03:34:53.054Z,99.99
2018-05-16T03:35:52.988Z,99.99
2018-05-16T03:36:52.931Z,99.99
2018-05-16T03:37:52.864Z,99.99
2018-05-16T03:38:52.800Z,99.99
2018-05-16T03:39:52.741Z,99.99
2018-05-16T03:40:52.673Z,99.99
2018-05-16T03:41:52.609Z,99.99
2018-05-16T03:42:52.547Z,99.99
2018-05-16T03:43:52.481Z,99.99
2018-05-16T03:44:52.420Z,99.99
2018-05-16T03:45:52.356Z,99.99
2018-05-16T03:46:52.293Z,99.99
2018-05-16T03:47:52.228Z,99.99
2018-05-16T03:48:52.170Z,99.99
2018-05-16T03:49:52.104Z,99.99
2018-05-16T03:50:52.040Z,99.99
2018-05-16T03:51:52.023Z,99.99
2018-05-16T03:52:51.913Z,99.99
2018-05-16T03:53:51.851Z,99.99
2018-05-16T03:54:51.785Z,99.99
2018-05-16T03:55:51.722Z,99.99
2018-05-16T03:56:51.660Z,99.99
2018-05-16T03:57:51.595Z,99.99
2018-05-16T03:58:51.532Z,99.99
2018-05-16T03:59:51.469Z,99.99
2018-05-16T04:00:51.423Z,99.99
2018-05-16T04:01:51.344Z,99.99
2018-05-16T04:02:51.282Z,99.99
2018-05-16T04:03:51.215Z,99.99
2018-05-16T04:04:51.153Z,99.99
2018-05-16T04:05:51.089Z,99.99
2018-05-16T04:06:51.027Z,99.99
2018-05-16T04:07:50.962Z,99.99
2018-05-16T04:08:50.898Z,99.99
2018-05-16T04:09:50.835Z,99.99
2018-05-16T04:10:50.771Z,99.99
2018-05-16T04:11:50.710Z,99.99
2018-05-16T04:12:50.646Z,99.99
2018-05-16T04:13:50.593Z,99.99
2018-05-16T04:14:50.520Z,99.99
2018-05-16T04:15:50.454Z,99.99
2018-05-16T04:16:50.392Z,99.99
2018-05-16T04:17:50.327Z,99.99
2018-05-16T04:18:50.264Z,99.99
2018-05-16T04:19:50.202Z,99.99
2018-05-16T04:20:50.139Z,99.99
2018-05-16T04:21:50.073Z,99.99
2018-05-16T04:22:50.011Z,99.99
2018-05-16T04:23:49.949Z,99.99
2018-05-16T04:24:49.885Z,99.99
2018-05-16T04:25:49.822Z,99.99
2018-05-16T04:26:49.758Z,99.99
2018-05-16T04:27:49.694Z,99.99
2018-05-16T04:28:49.700Z,99.99
2018-05-16T04:29:49.564Z,99.99
2018-05-16T04:30:49.503Z,99.99
2018-05-16T04:31:49.440Z,99.99
2018-05-16T04:32:49.377Z,99.99
2018-05-16T04:33:49.312Z,99.99
2018-05-16T04:34:49.252Z,99.99
2018-05-16T04:35:49.187Z,99.99
2018-05-16T04:36:49.127Z,99.99
2018-05-16T04:37:49.056Z,99.99
2018-05-16T04:38:48.998Z,99.99
2018-05-16T04:39:48.933Z,99.99
2018-05-16T04:40:48.869Z,99.99
2018-05-16T04:41:48.901Z,99.99
2018-05-16T04:42:48.742Z,99.99
2018-05-16T04:43:48.682Z,99.99
2018-05-16T04:44:48.616Z,99.99
2018-05-16T04:45:48.552Z,99.99
2018-05-16T04:46:48.489Z,99.99
2018-05-16T04:47:48.427Z,99.99
2018-05-16T04:48:48.363Z,99.99
2018-05-16T04:49:48.297Z,99.99
2018-05-16T04:50:48.236Z,99.99
2018-05-16T04:51:48.175Z,99.99
2018-05-16T04:52:48.119Z,99.99
2018-05-16T04:53:48.045Z,99.99
2018-05-16T04:54:47.986Z,99.99
2018-05-16T04:55:47.918Z,99.99
2018-05-16T04:56:47.856Z,99.99
2018-05-16T04:57:47.791Z,99.99
2018-05-16T04:58:47.729Z,99.99
2018-05-16T04:59:47.666Z,99.99
2018-05-16T05:00:47.602Z,99.99
2018-05-16T05:01:47.539Z,99.99
2018-05-16T05:02:47.470Z,99.99
2018-05-16T05:03:47.411Z,99.99
2018-05-16T05:04:47.346Z,99.99
2018-05-16T05:05:47.286Z,99.99
2018-05-16T05:06:47.223Z,99.99
2018-05-16T05:07:47.158Z,99.99
2018-05-16T05:08:47.110Z,99.99
2018-05-16T05:09:47.031Z,99.99
2018-05-16T05:10:46.967Z,99.99
2018-05-16T05:11:46.905Z,99.99
2018-05-16T05:12:46.841Z,99.99
2018-05-16T05:13:46.776Z,99.99
2018-05-16T05:14:46.715Z,99.99
2018-05-16T05:15:46.650Z,99.99
2018-05-16T05:16:46.591Z,99.99
2018-05-16T05:17:46.524Z,99.99
2018-05-16T05:18:46.469Z,99.99
2018-05-16T05:19:46.400Z,99.99
2018-05-16T05:20:46.337Z,99.99
2018-05-16T05:21:46.270Z,99.99
2018-05-16T05:22:46.209Z,99.99
2018-05-16T05:23:46.145Z,99.99
2018-05-16T05:24:46.083Z,99.99
2018-05-16T05:25:46.019Z,99.99
2018-05-16T05:26:45.955Z,99.99
2018-05-16T05:27:45.893Z,99.99
2018-05-16T05:28:45.828Z,99.99
2018-05-16T05:29:45.767Z,99.99
2018-05-16T05:30:45.702Z,99.99
2018-05-16T05:31:45.639Z,99.99
2018-05-16T05:32:45.575Z,99.99
2018-05-16T05:33:45.510Z,99.99
2018-05-16T05:34:45.449Z,99.99
2018-05-16T05:35:45.385Z,99.99
2018-05-16T05:36:45.357Z,99.99
2018-05-16T05:37:45.259Z,99.99
2018-05-16T05:38:45.194Z,99.99
2018-05-16T05:39:45.134Z,99.99
2018-05-16T05:40:45.069Z,99.99
2018-05-16T05:41:45.005Z,99.99
2018-05-16T05:42:44.943Z,99.99
2018-05-16T05:43:44.878Z,99.99
2018-05-16T05:44:44.817Z,99.99
2018-05-16T05:45:44.753Z,99.99
2018-05-16T05:46:44.689Z,99.99
2018-05-16T05:47:44.629Z,99.99
2018-05-16T05:48:44.562Z,99.99
2018-05-16T05:49:44.500Z,99.99
2018-05-16T05:50:44.437Z,99.99
2018-05-16T05:51:44.373Z,99.99
2018-05-16T05:52:44.310Z,99.99
2018-05-16T05:53:44.246Z,99.99
2018-05-16T05:54:44.183Z,99.99
2018-05-16T05:55:44.121Z,99.99
2018-05-16T05:56:44.058Z,99.99
2018-05-16T05:57:43.992Z,99.99
2018-05-16T05:58:43.932Z,99.99
2018-05-16T05:59:43.868Z,99.99
2018-05-16T06:00:43.805Z,99.99
2018-05-16T06:01:43.741Z,99.99
2018-05-16T06:02:43.680Z,99.99
2018-05-16T06:03:43.615Z,99.99
2018-05-16T06:04:43.559Z,99.99
2018-05-16T06:05:43.488Z,99.99
2018-05-16T06:06:43.424Z,99.99
2018-05-16T06:07:43.363Z,99.99
2018-05-16T06:08:43.301Z,99.99
2018-05-16T06:09:43.238Z,99.99
2018-05-16T06:10:43.174Z,99.99
2018-05-16T06:11:43.108Z,99.99
2018-05-16T06:12:43.062Z,99.99
2018-05-16T06:13:42.990Z,99.99
2018-05-16T06:14:42.922Z,99.99
2018-05-16T06:15:42.862Z,99.99
2018-05-16T06:16:42.796Z,99.99
2018-05-16T06:17:42.735Z,99.99
2018-05-16T06:18:42.698Z,99.99
2018-05-16T06:19:42.717Z,99.99
2018-05-16T06:20:42.565Z,99.99
2018-05-16T06:21:42.534Z,99.99
2018-05-16T06:22:42.567Z,99.99
2018-05-16T06:23:42.410Z,99.99
2018-05-16T06:24:42.294Z,99.99
2018-05-16T06:25:42.229Z,99.99
2018-05-16T06:26:42.180Z,99.99
2018-05-16T06:27:42.103Z,99.99
2018-05-16T06:28:42.041Z,99.99
2018-05-16T06:29:41.978Z,99.99
2018-05-16T06:30:41.914Z,99.99
2018-05-16T06:31:41.857Z,99.99
2018-05-16T06:32:41.794Z,99.99
2018-05-16T06:33:41.725Z,99.99
2018-05-16T06:34:41.663Z,99.99
2018-05-16T06:35:41.604Z,99.99
2018-05-16T06:36:41.538Z,99.99
2018-05-16T06:37:41.473Z,99.99
2018-05-16T06:38:41.413Z,99.99
2018-05-16T06:39:41.350Z,99.99
2018-05-16T06:40:41.287Z,99.99
2018-05-16T06:41:41.222Z,99.99
2018-05-16T06:42:41.164Z,99.99
2018-05-16T06:43:41.097Z,99.99
2018-05-16T06:44:41.036Z,99.99
2018-05-16T06:45:40.970Z,99.99
2018-05-16T06:46:40.910Z,99.99
2018-05-16T06:47:40.849Z,99.99
2018-05-16T06:48:40.786Z,99.99
2018-05-16T06:49:40.720Z,99.99
2018-05-16T06:50:40.658Z,99.99
2018-05-16T06:51:40.594Z,99.99
2018-05-16T06:52:40.533Z,99.99
2018-05-16T06:53:40.472Z,99.99
2018-05-16T06:54:40.408Z,99.99
2018-05-16T06:55:40.345Z,99.99
2018-05-16T06:56:40.282Z,99.99
2018-05-16T06:57:40.219Z,99.99
2018-05-16T06:58:40.156Z,99.99
2018-05-16T06:59:40.095Z,99.99
2018-05-16T07:00:40.032Z,99.99
2018-05-16T07:01:39.970Z,99.99
2018-05-16T07:02:39.906Z,99.99
2018-05-16T07:03:39.845Z,99.99
2018-05-16T07:04:39.783Z,99.99
2018-05-16T07:05:39.719Z,99.99
2018-05-16T07:06:39.660Z,99.99
2018-05-16T07:07:39.593Z,99.99
2018-05-16T07:08:39.532Z,99.99
2018-05-16T07:09:39.466Z,99.99
2018-05-16T07:10:39.406Z,99.99
2018-05-16T07:11:39.342Z,99.99
2018-05-16T07:12:39.281Z,99.99
2018-05-16T07:13:39.231Z,99.99
2018-05-16T07:14:39.155Z,99.99
2018-05-16T07:15:39.092Z,99.99
2018-05-16T07:16:39.034Z,99.99
2018-05-16T07:17:38.967Z,99.99
2018-05-16T07:18:38.905Z,99.99
2018-05-16T07:19:38.841Z,99.90
2018-05-16T07:20:38.779Z,99.99
2018-05-16T07:21:38.715Z,99.99
2018-05-16T07:22:38.654Z,99.90
2018-05-16T07:23:38.591Z,99.71
2018-05-16T07:24:38.529Z,98.85
2018-05-16T07:25:38.468Z,99.14
2018-05-16T07:26:38.411Z,99.14
2018-05-16T07:27:38.344Z,99.43
2018-05-16T07:28:38.280Z,99.99
2018-05-16T07:29:38.217Z,99.99
2018-05-16T07:30:38.157Z,99.90
2018-05-16T07:31:38.096Z,99.99
2018-05-16T07:32:38.030Z,98.85
2018-05-16T07:33:37.966Z,98.57
2018-05-16T07:34:37.914Z,98.80
2018-05-16T07:35:37.841Z,99.33
2018-05-16T07:36:37.780Z,98.90
2018-05-16T07:37:37.716Z,98.61
2018-05-16T07:38:37.654Z,99.19
2018-05-16T07:39:37.596Z,98.80
2018-05-16T07:40:37.536Z,97.85
2018-05-16T07:41:37.467Z,97.85
2018-05-16T07:42:37.407Z,97.37
2018-05-16T07:43:37.343Z,97.08
2018-05-16T07:44:37.281Z,96.61
2018-05-16T07:45:37.218Z,96.99
2018-05-16T07:46:37.156Z,97.75
2018-05-16T07:47:37.094Z,97.28
2018-05-16T07:48:37.033Z,97.18
2018-05-16T07:49:36.971Z,97.75
2018-05-16T07:50:36.907Z,96.89
2018-05-16T07:51:36.844Z,97.28
2018-05-16T07:52:36.783Z,97.66
2018-05-16T07:53:36.721Z,97.28
2018-05-16T07:54:36.665Z,97.85
2018-05-16T07:55:36.596Z,98.13
2018-05-16T07:56:36.534Z,97.47
2018-05-16T07:57:36.471Z,97.61
2018-05-16T07:58:36.408Z,97.56
2018-05-16T07:59:36.346Z,97.18
2018-05-16T08:00:36.284Z,98.04
2018-05-16T08:01:36.222Z,97.89
2018-05-16T08:02:36.158Z,97.32
2018-05-16T08:03:36.099Z,97.32
2018-05-16T08:04:36.036Z,97.99
2018-05-16T08:05:35.973Z,98.47
2018-05-16T08:06:35.913Z,98.57
2018-05-16T08:07:35.849Z,98.18
2018-05-16T08:08:35.788Z,97.89
2018-05-16T08:09:35.725Z,97.61
2018-05-16T08:10:35.662Z,97.61
2018-05-16T08:11:35.601Z,97.80
2018-05-16T08:12:35.538Z,98.08
2018-05-16T08:13:35.475Z,96.46
2018-05-16T08:14:35.412Z,97.61
2018-05-16T08:15:35.352Z,97.52
2018-05-16T08:16:35.290Z,97.89
2018-05-16T08:17:35.224Z,98.75
2018-05-16T08:18:35.163Z,98.28
2018-05-16T08:19:35.103Z,98.57
2018-05-16T08:20:35.038Z,98.94
2018-05-16T08:21:34.976Z,98.75
2018-05-16T08:22:34.916Z,99.14
2018-05-16T08:23:34.854Z,99.80
2018-05-16T08:24:34.790Z,98.66
2018-05-16T08:25:34.728Z,98.66
2018-05-16T08:26:34.664Z,98.75
2018-05-16T08:27:34.613Z,99.14
2018-05-16T08:28:34.542Z,98.85
2018-05-16T08:29:34.475Z,99.80
2018-05-16T08:30:34.416Z,99.52
2018-05-16T08:31:34.355Z,99.62
2018-05-16T08:32:34.291Z,99.52
2018-05-16T08:33:34.227Z,99.14
2018-05-16T08:34:34.166Z,99.99
2018-05-16T08:35:34.103Z,99.80
2018-05-16T08:36:34.042Z,99.14
2018-05-16T08:37:33.981Z,99.14
2018-05-16T08:38:33.917Z,98.57
2018-05-16T08:39:33.852Z,97.89
2018-05-16T08:40:33.791Z,98.37
2018-05-16T08:41:33.728Z,98.66
2018-05-16T08:42:33.665Z,99.33
2018-05-16T08:43:33.606Z,98.37
2018-05-16T08:44:33.545Z,98.75
2018-05-16T08:45:33.478Z,99.62
2018-05-16T08:46:33.419Z,99.52
2018-05-16T08:47:33.352Z,99.90
2018-05-16T08:48:33.293Z,99.99
2018-05-16T08:49:33.229Z,99.99
2018-05-16T08:50:33.167Z,99.99
2018-05-16T08:51:33.105Z,99.99
2018-05-16T08:52:33.043Z,99.99
2018-05-16T08:53:32.981Z,99.99
2018-05-16T08:54:32.916Z,99.99
2018-05-16T08:55:32.857Z,99.99
2018-05-16T08:56:32.794Z,99.99
2018-05-16T08:57:32.730Z,99.99
2018-05-16T08:58:32.672Z,99.99
2018-05-16T08:59:32.606Z,99.99
2018-05-16T09:00:32.542Z,99.99
2018-05-16T09:01:32.480Z,99.99
2018-05-16T09:02:32.417Z,99.99
2018-05-16T09:03:32.363Z,99.99
2018-05-16T09:04:32.291Z,99.99
2018-05-16T09:05:32.239Z,99.71
2018-05-16T09:06:32.168Z,99.99
2018-05-16T09:07:32.112Z,99.04
2018-05-16T09:08:32.043Z,99.62
2018-05-16T09:09:31.980Z,99.14
2018-05-16T09:10:31.917Z,99.52
2018-05-16T09:11:31.861Z,99.80
2018-05-16T09:12:31.794Z,99.04
2018-05-16T09:13:31.730Z,98.85
2018-05-16T09:14:31.670Z,99.43
2018-05-16T09:15:31.605Z,99.23
2018-05-16T09:16:31.544Z,99.80
2018-05-16T09:17:31.481Z,98.37
2018-05-16T09:18:31.420Z,99.23
2018-05-16T09:19:31.356Z,99.33
2018-05-16T09:20:31.294Z,99.23
2018-05-16T09:21:31.231Z,98.85
2018-05-16T09:22:31.169Z,99.33
2018-05-16T09:23:31.107Z,99.71
2018-05-16T09:24:31.043Z,99.14
2018-05-16T09:25:30.987Z,99.80
2018-05-16T09:26:30.920Z,99.52
2018-05-16T09:27:30.857Z,99.19
2018-05-16T09:28:30.796Z,98.75
2018-05-16T09:29:30.732Z,98.37
2018-05-16T09:30:30.669Z,97.99
2018-05-16T09:31:30.609Z,97.80
2018-05-16T09:32:30.548Z,97.61
2018-05-16T09:33:30.483Z,96.84
2018-05-16T09:34:30.433Z,98.18
2018-05-16T09:35:30.358Z,97.89
2018-05-16T09:36:30.296Z,98.18
2018-05-16T09:37:30.232Z,98.28
2018-05-16T09:38:30.170Z,98.37
2018-05-16T09:39:30.110Z,98.66
2018-05-16T09:40:30.050Z,99.43
2018-05-16T09:41:29.983Z,98.66
2018-05-16T09:42:29.922Z,98.85
2018-05-16T09:43:29.860Z,97.99
2018-05-16T09:44:29.823Z,98.66
2018-05-16T09:45:29.737Z,99.14
2018-05-16T09:46:29.749Z,98.57
2018-05-16T09:47:29.610Z,97.75
2018-05-16T09:48:29.549Z,97.28
2018-05-16T09:49:29.485Z,96.61
2018-05-16T09:50:29.424Z,97.08
2018-05-16T09:51:29.433Z,96.89
2018-05-16T09:52:29.299Z,96.61
2018-05-16T09:53:29.237Z,97.08
2018-05-16T09:54:29.173Z,96.99
2018-05-16T09:55:29.116Z,96.42
2018-05-16T09:56:29.052Z,96.42
2018-05-16T09:57:28.989Z,95.07
2018-05-16T09:58:28.926Z,96.03
2018-05-16T09:59:28.865Z,95.94
2018-05-16T10:00:28.803Z,95.75
2018-05-16T10:01:28.752Z,96.51
2018-05-16T10:02:28.678Z,96.61
2018-05-16T10:03:28.619Z,97.18
2018-05-16T10:04:28.554Z,96.99
2018-05-16T10:05:28.492Z,97.28
2018-05-16T10:06:28.431Z,97.47
2018-05-16T10:07:28.367Z,97.18
2018-05-16T10:08:28.305Z,96.80
2018-05-16T10:09:28.239Z,96.80
2018-05-16T10:10:28.185Z,96.13
2018-05-16T10:11:28.128Z,95.65
2018-05-16T10:12:28.058Z,95.65
2018-05-16T10:13:27.995Z,96.70
2018-05-16T10:14:27.933Z,96.13
2018-05-16T10:15:27.872Z,96.27
2018-05-16T10:16:27.808Z,96.08
2018-05-16T10:17:27.748Z,95.12
2018-05-16T10:18:27.685Z,94.17
2018-05-16T10:19:27.625Z,94.36
2018-05-16T10:20:27.564Z,93.60
2018-05-16T10:21:27.499Z,93.88
2018-05-16T10:22:27.438Z,93.36
2018-05-16T10:23:27.377Z,94.41
2018-05-16T10:24:27.315Z,94.70
2018-05-16T10:25:27.252Z,95.27
2018-05-16T10:26:27.210Z,94.79
2018-05-16T10:27:27.129Z,95.27
2018-05-16T10:28:27.068Z,95.17
2018-05-16T10:29:27.006Z,96.03
2018-05-16T10:30:26.949Z,95.27
2018-05-16T10:31:26.883Z,95.27
2018-05-16T10:32:26.822Z,95.17
2018-05-16T10:33:26.763Z,95.32
2018-05-16T10:34:26.789Z,94.22
2018-05-16T10:35:26.636Z,94.79
2018-05-16T10:36:26.575Z,95.46
2018-05-16T10:37:26.511Z,95.32
2018-05-16T10:38:26.450Z,95.89
2018-05-16T10:39:26.393Z,95.51
2018-05-16T10:40:26.331Z,94.84
2018-05-16T10:41:26.270Z,95.41
2018-05-16T10:42:26.204Z,94.84
2018-05-16T10:43:26.141Z,94.74
2018-05-16T10:44:26.081Z,95.12
2018-05-16T10:45:26.019Z,95.32
2018-05-16T10:46:25.956Z,94.17
2018-05-16T10:47:25.909Z,94.74
2018-05-16T10:48:25.843Z,94.93
2018-05-16T10:49:25.772Z,94.36
2018-05-16T10:50:25.791Z,94.65
2018-05-16T10:51:25.649Z,94.65
2018-05-16T10:52:25.588Z,95.12
2018-05-16T10:53:25.591Z,95.51
2018-05-16T10:54:25.465Z,94.07
2018-05-16T10:55:25.403Z,95.12
2018-05-16T10:56:25.344Z,94.55
2018-05-16T10:57:25.294Z,94.46
2018-05-16T10:58:25.220Z,94.65
2018-05-16T10:59:25.156Z,95.61
2018-05-16T11:00:25.097Z,95.22
2018-05-16T11:01:25.033Z,95.32
2018-05-16T11:02:24.977Z,95.41
2018-05-16T11:03:24.951Z,94.89
2018-05-16T11:04:24.850Z,94.12
2018-05-16T11:05:24.788Z,94.79
2018-05-16T11:06:24.727Z,93.93
2018-05-16T11:07:24.663Z,93.40
2018-05-16T11:08:24.604Z,93.88
2018-05-16T11:09:24.544Z,94.07
2018-05-16T11:10:24.566Z,94.60
2018-05-16T11:11:24.417Z,94.12
2018-05-16T11:12:24.362Z,94.60
2018-05-16T11:13:24.298Z,94.79
2018-05-16T11:14:24.359Z,94.79
2018-05-16T11:15:24.173Z,94.60
2018-05-16T11:16:24.112Z,94.21
2018-05-16T11:17:24.050Z,93.93
2018-05-16T11:18:23.991Z,93.55
2018-05-16T11:19:23.928Z,94.12
2018-05-16T11:20:23.879Z,93.26
2018-05-16T11:21:23.864Z,92.40
2018-05-16T11:22:23.746Z,92.88
2018-05-16T11:23:23.685Z,93.35
2018-05-16T11:24:23.620Z,93.45
2018-05-16T11:25:23.559Z,93.45
2018-05-16T11:26:23.499Z,93.16
2018-05-16T11:27:23.439Z,93.26
2018-05-16T11:28:23.379Z,93.26
2018-05-16T11:29:23.323Z,93.64
2018-05-16T11:30:23.255Z,93.55
2018-05-16T11:31:23.193Z,93.84
2018-05-16T11:32:23.133Z,93.64
2018-05-16T11:33:23.071Z,94.02
2018-05-16T11:34:23.012Z,93.45
2018-05-16T11:35:22.950Z,93.64
2018-05-16T11:36:22.893Z,93.64
2018-05-16T11:37:22.826Z,92.49
2018-05-16T11:38:22.764Z,92.63
2018-05-16T11:39:22.708Z,92.21
2018-05-16T11:40:22.644Z,92.06
2018-05-16T11:41:22.583Z,92.78
2018-05-16T11:42:22.544Z,92.73
2018-05-16T11:43:22.461Z,92.73
2018-05-16T11:44:22.399Z,92.44
2018-05-16T11:45:22.338Z,92.06
2018-05-16T11:46:22.277Z,92.16
2018-05-16T11:47:22.219Z,92.83
2018-05-16T11:48:22.155Z,91.58
2018-05-16T11:49:22.093Z,92.92
2018-05-16T11:50:22.032Z,93.30
2018-05-16T11:51:21.973Z,93.30
2018-05-16T11:52:21.912Z,92.92
2018-05-16T11:53:21.852Z,93.02
2018-05-16T11:54:21.789Z,92.92
2018-05-16T11:55:21.731Z,93.21
2018-05-16T11:56:21.669Z,93.50
2018-05-16T11:57:21.605Z,92.83
2018-05-16T11:58:21.545Z,92.73
2018-05-16T11:59:21.588Z,93.40
2018-05-16T12:00:21.425Z,93.21
2018-05-16T12:01:21.361Z,92.83
2018-05-16T12:02:21.301Z,92.40
2018-05-16T12:03:21.240Z,92.54
2018-05-16T12:04:21.180Z,93.16
2018-05-16T12:05:21.117Z,93.45
2018-05-16T12:06:21.062Z,93.84
2018-05-16T12:07:20.997Z,94.12
2018-05-16T12:08:20.937Z,94.98
2018-05-16T12:09:20.874Z,94.89
2018-05-16T12:10:20.815Z,95.17
2018-05-16T12:11:20.753Z,95.56
2018-05-16T12:12:20.691Z,95.46
2018-05-16T12:13:20.630Z,95.17
2018-05-16T12:14:20.569Z,96.13
2018-05-16T12:15:20.509Z,97.28
2018-05-16T12:16:20.448Z,97.08
2018-05-16T12:17:20.385Z,96.99
2018-05-16T12:18:20.324Z,96.56
2018-05-16T12:19:20.269Z,96.94
2018-05-16T12:20:20.204Z,96.84
2018-05-16T12:21:20.140Z,98.09
2018-05-16T12:22:20.080Z,98.09
2018-05-16T12:23:20.019Z,97.90
2018-05-16T12:24:19.959Z,98.09
2018-05-16T12:25:19.896Z,97.13
2018-05-16T12:26:19.834Z,97.61
2018-05-16T12:27:19.773Z,97.80
2018-05-16T12:28:19.713Z,98.66
2018-05-16T12:29:19.781Z,99.71
2018-05-16T12:30:19.585Z,99.14
2018-05-16T12:31:19.526Z,99.24
2018-05-16T12:32:19.465Z,99.52
2018-05-16T12:33:19.404Z,99.90
2018-05-16T12:34:19.343Z,99.99
2018-05-16T12:35:19.280Z,99.33
2018-05-16T12:36:19.224Z,99.71
2018-05-16T12:37:19.159Z,99.99
2018-05-16T12:38:19.095Z,99.33
2018-05-16T12:39:19.034Z,99.52
2018-05-16T12:40:18.974Z,99.99
2018-05-16T12:41:18.912Z,99.90
2018-05-16T12:42:18.852Z,99.24
2018-05-16T12:43:18.789Z,99.81
2018-05-16T12:44:18.726Z,99.90
2018-05-16T12:45:18.664Z,99.52
2018-05-16T12:46:18.605Z,98.85
2018-05-16T12:47:18.538Z,98.47
2018-05-16T12:48:18.477Z,98.09
2018-05-16T12:49:18.429Z,97.71
2018-05-16T12:50:18.359Z,97.52
2018-05-16T12:51:18.296Z,97.71